sensor_id;sensor_type;location;lat;lon;timestamp;P1;durP1;ratioP1;P2;durP2;ratioP2
74788;SDS011;63313;48.258;12.518;2023-11-21T00:04:59;7.18;;;3.5199999999999996;;
74788;SDS011;63313;48.258;12.518;2023-11-21T00:10:26;6.069999999999999;;;2.3899999999999997;;
74788;SDS011;63313;48.258;12.518;2023-11-21T00:15:53;6.65;;;2.7199999999999998;;
74788;SDS011;63313;48.258;12.518;2023-11-21T00:21:20;11.41;;;3.29;;
74788;SDS011;63313;48.258;12.518;2023-11-21T00:26:47;9.25;;;3.22;;
74788;SDS011;63313;48.258;12.518;2023-11-21T00:32:14;10.059999999999999;;;3.3;;
74788;SDS011;63313;48.258;12.518;2023-11-21T00:37:41;6.640000000000001;;;3.1699999999999995;;
74788;SDS011;63313;48.258;12.518;2023-11-21T00:43:09;7.110000000000001;;;3.08;;
74788;SDS011;63313;48.258;12.518;2023-11-21T00:48:36;8.91;;;3.2299999999999995;;
74788;SDS011;63313;48.258;12.518;2023-11-21T00:54:03;9.67;;;2.96;;
74788;SDS011;63313;48.258;12.518;2023-11-21T00:59:30;10.4;;;3.35;;
74788;SDS011;63313;48.258;12.518;2023-11-21T01:04:57;10.690000000000001;;;2.85;;
74788;SDS011;63313;48.258;12.518;2023-11-21T01:10:24;16.339999999999996;;;4.6899999999999995;;
74788;SDS011;63313;48.258;12.518;2023-11-21T01:15:51;11.93;;;3.8;;
74788;SDS011;63313;48.258;12.518;2023-11-21T01:21:18;10.79;;;3.8000000000000007;;
74788;SDS011;63313;48.258;12.518;2023-11-21T01:26:45;13.05;;;3.85;;
74788;SDS011;63313;48.258;12.518;2023-11-21T01:32:12;12.27;;;3.4;;
74788;SDS011;63313;48.258;12.518;2023-11-21T01:37:39;6.58;;;3.3299999999999996;;
74788;SDS011;63313;48.258;12.518;2023-11-21T01:43:06;7.530000000000001;;;3.2399999999999998;;
74788;SDS011;63313;48.258;12.518;2023-11-21T01:48:33;8.42;;;3.38;;
74788;SDS011;63313;48.258;12.518;2023-11-21T01:54:01;10.580000000000002;;;4.239999999999999;;
74788;SDS011;63313;48.258;12.518;2023-11-21T01:59:29;10.82;;;3.7;;
74788;SDS011;63313;48.258;12.518;2023-11-21T02:04:58;11.540000000000001;;;3.8699999999999997;;
74788;SDS011;63313;48.258;12.518;2023-11-21T02:10:25;16.06;;;3.91;;
74788;SDS011;63313;48.258;12.518;2023-11-21T02:15:52;12.400000000000002;;;3.9899999999999998;;
74788;SDS011;63313;48.258;12.518;2023-11-21T02:21:19;12.080000000000002;;;4.23;;
74788;SDS011;63313;48.258;12.518;2023-11-21T02:26:46;11.540000000000001;;;3.75;;
74788;SDS011;63313;48.258;12.518;2023-11-21T02:32:13;10.71;;;4.17;;
74788;SDS011;63313;48.258;12.518;2023-11-21T02:37:40;5.62;;;3.37;;
74788;SDS011;63313;48.258;12.518;2023-11-21T02:43:07;12.620000000000001;;;4.12;;
74788;SDS011;63313;48.258;12.518;2023-11-21T02:48:34;6.26;;;3.46;;
74788;SDS011;63313;48.258;12.518;2023-11-21T02:54:01;11.899999999999999;;;4.02;;
74788;SDS011;63313;48.258;12.518;2023-11-21T02:59:28;13.61;;;4.15;;
74788;SDS011;63313;48.258;12.518;2023-11-21T03:04:55;7.92;;;3.3200000000000003;;
74788;SDS011;63313;48.258;12.518;2023-11-21T03:10:23;10.739999999999998;;;3.6800000000000006;;
74788;SDS011;63313;48.258;12.518;2023-11-21T03:15:50;10.56;;;3.55;;
74788;SDS011;63313;48.258;12.518;2023-11-21T03:21:17;12.55;;;3.7700000000000005;;
74788;SDS011;63313;48.258;12.518;2023-11-21T03:26:44;6.110000000000001;;;3.37;;
74788;SDS011;63313;48.258;12.518;2023-11-21T03:32:11;9.139999999999999;;;3.56;;
74788;SDS011;63313;48.258;12.518;2023-11-21T03:37:38;12.750000000000002;;;3.710000000000001;;
74788;SDS011;63313;48.258;12.518;2023-11-21T03:43:05;15.029999999999998;;;5.830000000000001;;
74788;SDS011;63313;48.258;12.518;2023-11-21T03:48:32;16.28;;;4.51;;
74788;SDS011;63313;48.258;12.518;2023-11-21T03:53:59;10.34;;;3.6799999999999997;;
74788;SDS011;63313;48.258;12.518;2023-11-21T03:59:26;7.63;;;2.4800000000000004;;
74788;SDS011;63313;48.258;12.518;2023-11-21T04:04:53;6.01;;;2.19;;
74788;SDS011;63313;48.258;12.518;2023-11-21T04:10:20;7.6899999999999995;;;1.8699999999999999;;
74788;SDS011;63313;48.258;12.518;2023-11-21T04:15:47;5.0600000000000005;;;1.72;;
74788;SDS011;63313;48.258;12.518;2023-11-21T04:21:14;4.11;;;1.42;;
74788;SDS011;63313;48.258;12.518;2023-11-21T04:26:42;2.57;;;1.43;;
74788;SDS011;63313;48.258;12.518;2023-11-21T04:32:10;4.6899999999999995;;;1.31;;
74788;SDS011;63313;48.258;12.518;2023-11-21T04:37:37;3.8500000000000005;;;1.1299999999999997;;
74788;SDS011;63313;48.258;12.518;2023-11-21T04:43:04;5.8;;;1.17;;
74788;SDS011;63313;48.258;12.518;2023-11-21T04:48:31;2.92;;;1.1400000000000001;;
74788;SDS011;63313;48.258;12.518;2023-11-21T04:53:58;6.7299999999999995;;;1.0899999999999999;;
74788;SDS011;63313;48.258;12.518;2023-11-21T04:59:25;2.3099999999999996;;;1.45;;
74788;SDS011;63313;48.258;12.518;2023-11-21T05:04:52;3.8699999999999997;;;1.61;;
74788;SDS011;63313;48.258;12.518;2023-11-21T05:10:19;3.999999999999999;;;1.6600000000000001;;
74788;SDS011;63313;48.258;12.518;2023-11-21T05:15:46;5.86;;;1.78;;
74788;SDS011;63313;48.258;12.518;2023-11-21T05:21:13;9.959999999999999;;;2.6;;
74788;SDS011;63313;48.258;12.518;2023-11-21T05:26:40;5.569999999999999;;;2.4400000000000004;;
74788;SDS011;63313;48.258;12.518;2023-11-21T05:32:07;12.28;;;4.220000000000001;;
74788;SDS011;63313;48.258;12.518;2023-11-21T05:37:34;9.33;;;2.7300000000000004;;
74788;SDS011;63313;48.258;12.518;2023-11-21T05:43:02;4.180000000000001;;;2.16;;
74788;SDS011;63313;48.258;12.518;2023-11-21T05:48:29;13.819999999999999;;;5.68;;
74788;SDS011;63313;48.258;12.518;2023-11-21T05:53:56;7.7700000000000005;;;3.400000000000001;;
74788;SDS011;63313;48.258;12.518;2023-11-21T05:59:23;12.599999999999998;;;2.92;;
74788;SDS011;63313;48.258;12.518;2023-11-21T06:04:50;4.0200000000000005;;;2.13;;
74788;SDS011;63313;48.258;12.518;2023-11-21T06:10:19;6.529999999999999;;;2.46;;
74788;SDS011;63313;48.258;12.518;2023-11-21T06:15:46;7.74;;;2.5900000000000003;;
74788;SDS011;63313;48.258;12.518;2023-11-21T06:21:13;8.510000000000002;;;2.85;;
74788;SDS011;63313;48.258;12.518;2023-11-21T06:26:40;8.91;;;3.56;;
74788;SDS011;63313;48.258;12.518;2023-11-21T06:32:07;10.5;;;4.840000000000001;;
74788;SDS011;63313;48.258;12.518;2023-11-21T06:37:35;9.47;;;5.05;;
74788;SDS011;63313;48.258;12.518;2023-11-21T06:43:02;12.87;;;5.6;;
74788;SDS011;63313;48.258;12.518;2023-11-21T06:48:29;9.13;;;5.74;;
74788;SDS011;63313;48.258;12.518;2023-11-21T06:53:56;7.99;;;4.82;;
74788;SDS011;63313;48.258;12.518;2023-11-21T06:59:23;12.79;;;4.89;;
74788;SDS011;63313;48.258;12.518;2023-11-21T07:04:50;31.68;;;11.72;;
74788;SDS011;63313;48.258;12.518;2023-11-21T07:10:17;15.419999999999998;;;6.33;;
74788;SDS011;63313;48.258;12.518;2023-11-21T07:15:44;25.520000000000003;;;9.32;;
74788;SDS011;63313;48.258;12.518;2023-11-21T07:21:11;6.24;;;3.45;;
74788;SDS011;63313;48.258;12.518;2023-11-21T07:26:39;5.75;;;3.1500000000000004;;
74788;SDS011;63313;48.258;12.518;2023-11-21T07:32:06;9.33;;;2.58;;
74788;SDS011;63313;48.258;12.518;2023-11-21T07:37:33;8.37;;;2.2699999999999996;;
74788;SDS011;63313;48.258;12.518;2023-11-21T07:43:00;12.260000000000002;;;3.85;;
74788;SDS011;63313;48.258;12.518;2023-11-21T07:48:27;14.540000000000001;;;6.17;;
74788;SDS011;63313;48.258;12.518;2023-11-21T07:53:54;10.860000000000001;;;5.630000000000001;;
74788;SDS011;63313;48.258;12.518;2023-11-21T07:59:21;5.890000000000001;;;3.4799999999999995;;
74788;SDS011;63313;48.258;12.518;2023-11-21T08:04:48;6.8;;;3.38;;
74788;SDS011;63313;48.258;12.518;2023-11-21T08:10:15;7.35;;;3.8599999999999994;;
74788;SDS011;63313;48.258;12.518;2023-11-21T08:15:42;9.469999999999999;;;3.749999999999999;;
74788;SDS011;63313;48.258;12.518;2023-11-21T08:21:12;5.15;;;2.6;;
74788;SDS011;63313;48.258;12.518;2023-11-21T08:26:39;9.07;;;2.5300000000000002;;
74788;SDS011;63313;48.258;12.518;2023-11-21T08:32:06;7.290000000000001;;;2.54;;
74788;SDS011;63313;48.258;12.518;2023-11-21T08:37:33;6.720000000000001;;;2.86;;
74788;SDS011;63313;48.258;12.518;2023-11-21T08:43:00;5.0;;;2.7699999999999996;;
74788;SDS011;63313;48.258;12.518;2023-11-21T08:48:27;11.709999999999999;;;2.7700000000000005;;
74788;SDS011;63313;48.258;12.518;2023-11-21T08:53:54;4.83;;;2.23;;
74788;SDS011;63313;48.258;12.518;2023-11-21T08:59:21;4.79;;;2.4699999999999998;;
74788;SDS011;63313;48.258;12.518;2023-11-21T09:04:48;12.28;;;2.5700000000000003;;
74788;SDS011;63313;48.258;12.518;2023-11-21T09:10:16;4.66;;;2.18;;
74788;SDS011;63313;48.258;12.518;2023-11-21T09:15:43;3.6399999999999997;;;2.1;;
74788;SDS011;63313;48.258;12.518;2023-11-21T09:21:10;4.6;;;1.77;;
74788;SDS011;63313;48.258;12.518;2023-11-21T09:26:37;3.63;;;1.7100000000000002;;
74788;SDS011;63313;48.258;12.518;2023-11-21T09:32:04;1.75;;;1.4899999999999998;;
74788;SDS011;63313;48.258;12.518;2023-11-21T09:37:31;2.8;;;1.57;;
74788;SDS011;63313;48.258;12.518;2023-11-21T09:42:58;1.4500000000000002;;;1.19;;
74788;SDS011;63313;48.258;12.518;2023-11-21T09:48:26;1.47;;;1.45;;
74788;SDS011;63313;48.258;12.518;2023-11-21T09:53:53;2.3099999999999996;;;0.9800000000000001;;
74788;SDS011;63313;48.258;12.518;2023-11-21T09:59:21;1.09;;;0.6599999999999999;;
74788;SDS011;63313;48.258;12.518;2023-11-21T10:04:48;7.139999999999999;;;0.99;;
74788;SDS011;63313;48.258;12.518;2023-11-21T10:10:15;2.37;;;0.8800000000000001;;
74788;SDS011;63313;48.258;12.518;2023-11-21T10:15:45;2.02;;;0.9;;
74788;SDS011;63313;48.258;12.518;2023-11-21T10:21:16;2.15;;;1.3000000000000003;;
74788;SDS011;63313;48.258;12.518;2023-11-21T10:26:43;2.7600000000000002;;;1.2499999999999998;;
74788;SDS011;63313;48.258;12.518;2023-11-21T10:32:11;2.13;;;1.27;;
74788;SDS011;63313;48.258;12.518;2023-11-21T10:37:39;5.01;;;1.1700000000000002;;
74788;SDS011;63313;48.258;12.518;2023-11-21T10:43:06;1.39;;;1.24;;
74788;SDS011;63313;48.258;12.518;2023-11-21T10:48:33;2.8299999999999996;;;1.5399999999999998;;
74788;SDS011;63313;48.258;12.518;2023-11-21T10:54:00;2.91;;;1.33;;
74788;SDS011;63313;48.258;12.518;2023-11-21T10:59:28;1.39;;;1.27;;
74788;SDS011;63313;48.258;12.518;2023-11-21T11:04:55;2.6500000000000004;;;1.3;;
74788;SDS011;63313;48.258;12.518;2023-11-21T11:10:24;1.8800000000000001;;;1.19;;
74788;SDS011;63313;48.258;12.518;2023-11-21T11:15:51;1.3900000000000001;;;1.2600000000000002;;
74788;SDS011;63313;48.258;12.518;2023-11-21T11:21:26;1.7399999999999998;;;1.5;;
74788;SDS011;63313;48.258;12.518;2023-11-21T11:26:56;3.81;;;2.04;;
74788;SDS011;63313;48.258;12.518;2023-11-21T11:32:27;2.17;;;1.8699999999999999;;
74788;SDS011;63313;48.258;12.518;2023-11-21T11:37:54;6.69;;;3.1100000000000003;;
74788;SDS011;63313;48.258;12.518;2023-11-21T11:43:25;3.59;;;2.65;;
74788;SDS011;63313;48.258;12.518;2023-11-21T11:48:59;13.439999999999998;;;7.01;;
74788;SDS011;63313;48.258;12.518;2023-11-21T11:54:34;5.279999999999999;;;2.87;;
74788;SDS011;63313;48.258;12.518;2023-11-21T12:00:11;3.71;;;2.32;;
74788;SDS011;63313;48.258;12.518;2023-11-21T12:05:38;2.05;;;1.9300000000000002;;
74788;SDS011;63313;48.258;12.518;2023-11-21T12:11:07;2.4499999999999997;;;2.01;;
74788;SDS011;63313;48.258;12.518;2023-11-21T12:16:34;2.1399999999999997;;;1.65;;
74788;SDS011;63313;48.258;12.518;2023-11-21T12:22:01;3.5;;;2.0900000000000003;;
74788;SDS011;63313;48.258;12.518;2023-11-21T12:27:28;1.8;;;1.5799999999999998;;
74788;SDS011;63313;48.258;12.518;2023-11-21T12:32:55;1.8700000000000003;;;1.8;;
74788;SDS011;63313;48.258;12.518;2023-11-21T12:38:22;1.6800000000000002;;;1.36;;
74788;SDS011;63313;48.258;12.518;2023-11-21T12:43:49;2.9800000000000004;;;1.1799999999999997;;
74788;SDS011;63313;48.258;12.518;2023-11-21T12:49:17;1.0399999999999998;;;1.0399999999999998;;
74788;SDS011;63313;48.258;12.518;2023-11-21T12:54:44;0.9199999999999999;;;0.9199999999999999;;
74788;SDS011;63313;48.258;12.518;2023-11-21T13:00:12;2.8300000000000005;;;1.48;;
74788;SDS011;63313;48.258;12.518;2023-11-21T13:05:40;1.5;;;1.3699999999999999;;
74788;SDS011;63313;48.258;12.518;2023-11-21T13:11:07;1.33;;;1.23;;
74788;SDS011;63313;48.258;12.518;2023-11-21T13:16:34;2.04;;;1.37;;
74788;SDS011;63313;48.258;12.518;2023-11-21T13:22:01;3.4299999999999997;;;1.4300000000000002;;
74788;SDS011;63313;48.258;12.518;2023-11-21T13:27:28;1.7099999999999997;;;1.6199999999999999;;
74788;SDS011;63313;48.258;12.518;2023-11-21T13:32:56;2.14;;;1.8699999999999999;;
74788;SDS011;63313;48.258;12.518;2023-11-21T13:38:23;2.71;;;2.5300000000000002;;
74788;SDS011;63313;48.258;12.518;2023-11-21T13:43:50;2.8099999999999996;;;2.5100000000000002;;
74788;SDS011;63313;48.258;12.518;2023-11-21T13:49:17;3.66;;;3.2599999999999993;;
74788;SDS011;63313;48.258;12.518;2023-11-21T13:54:44;3.0000000000000004;;;2.7899999999999996;;
74788;SDS011;63313;48.258;12.518;2023-11-21T14:00:12;3.1699999999999995;;;2.8;;
74788;SDS011;63313;48.258;12.518;2023-11-21T14:05:39;4.04;;;3.1100000000000003;;
74788;SDS011;63313;48.258;12.518;2023-11-21T14:11:06;4.2299999999999995;;;3.91;;
74788;SDS011;63313;48.258;12.518;2023-11-21T14:16:33;4.54;;;3.8400000000000007;;
74788;SDS011;63313;48.258;12.518;2023-11-21T14:22:00;4.31;;;3.85;;
74788;SDS011;63313;48.258;12.518;2023-11-21T14:27:27;7.629999999999998;;;4.569999999999999;;
74788;SDS011;63313;48.258;12.518;2023-11-21T14:32:54;4.59;;;3.84;;
74788;SDS011;63313;48.258;12.518;2023-11-21T14:38:21;6.32;;;4.23;;
74788;SDS011;63313;48.258;12.518;2023-11-21T14:43:48;5.9799999999999995;;;3.9;;
74788;SDS011;63313;48.258;12.518;2023-11-21T14:49:15;5.01;;;3.7599999999999993;;
74788;SDS011;63313;48.258;12.518;2023-11-21T14:54:42;5.61;;;3.45;;
74788;SDS011;63313;48.258;12.518;2023-11-21T15:00:10;53.209999999999994;;;24.080000000000002;;
74788;SDS011;63313;48.258;12.518;2023-11-21T15:05:37;10.099999999999998;;;5.68;;
74788;SDS011;63313;48.258;12.518;2023-11-21T15:11:04;5.069999999999999;;;4.64;;
74788;SDS011;63313;48.258;12.518;2023-11-21T15:16:31;12.3;;;8.91;;
74788;SDS011;63313;48.258;12.518;2023-11-21T15:21:58;5.41;;;4.89;;
74788;SDS011;63313;48.258;12.518;2023-11-21T15:27:25;5.830000000000001;;;5.3100000000000005;;
74788;SDS011;63313;48.258;12.518;2023-11-21T15:32:52;10.27;;;7.95;;
74788;SDS011;63313;48.258;12.518;2023-11-21T15:38:20;10.84;;;8.34;;
74788;SDS011;63313;48.258;12.518;2023-11-21T15:43:47;6.779999999999999;;;5.92;;
74788;SDS011;63313;48.258;12.518;2023-11-21T15:49:14;7.239999999999999;;;6.200000000000001;;
74788;SDS011;63313;48.258;12.518;2023-11-21T15:54:41;8.4;;;6.8;;
74788;SDS011;63313;48.258;12.518;2023-11-21T16:00:08;6.830000000000001;;;4.09;;
74788;SDS011;63313;48.258;12.518;2023-11-21T16:05:35;11.57;;;9.77;;
74788;SDS011;63313;48.258;12.518;2023-11-21T16:11:02;7.859999999999999;;;6.049999999999999;;
74788;SDS011;63313;48.258;12.518;2023-11-21T16:16:30;7.92;;;6.49;;
74788;SDS011;63313;48.258;12.518;2023-11-21T16:21:57;6.13;;;4.85;;
74788;SDS011;63313;48.258;12.518;2023-11-21T16:27:24;5.9;;;4.75;;
74788;SDS011;63313;48.258;12.518;2023-11-21T16:32:51;6.08;;;4.8100000000000005;;
74788;SDS011;63313;48.258;12.518;2023-11-21T16:38:18;6.56;;;5.16;;
74788;SDS011;63313;48.258;12.518;2023-11-21T16:43:45;5.6;;;4.659999999999999;;
74788;SDS011;63313;48.258;12.518;2023-11-21T16:49:12;6.9399999999999995;;;5.73;;
74788;SDS011;63313;48.258;12.518;2023-11-21T16:54:39;7.99;;;5.5200000000000005;;
74788;SDS011;63313;48.258;12.518;2023-11-21T17:00:07;7.239999999999999;;;5.7;;
74788;SDS011;63313;48.258;12.518;2023-11-21T17:05:34;10.4;;;7.360000000000001;;
74788;SDS011;63313;48.258;12.518;2023-11-21T17:11:01;12.370000000000001;;;6.709999999999999;;
74788;SDS011;63313;48.258;12.518;2023-11-21T17:16:28;8.599999999999998;;;6.15;;
74788;SDS011;63313;48.258;12.518;2023-11-21T17:21:55;11.83;;;7.340000000000001;;
74788;SDS011;63313;48.258;12.518;2023-11-21T17:27:22;10.45;;;7.5200000000000005;;
74788;SDS011;63313;48.258;12.518;2023-11-21T17:32:49;14.86;;;8.77;;
74788;SDS011;63313;48.258;12.518;2023-11-21T17:38:16;12.959999999999999;;;7.659999999999999;;
74788;SDS011;63313;48.258;12.518;2023-11-21T17:43:43;15.060000000000002;;;8.55;;
74788;SDS011;63313;48.258;12.518;2023-11-21T17:49:11;12.989999999999998;;;8.3;;
74788;SDS011;63313;48.258;12.518;2023-11-21T17:54:38;14.529999999999998;;;8.51;;
74788;SDS011;63313;48.258;12.518;2023-11-21T18:00:05;13.76;;;8.659999999999998;;
74788;SDS011;63313;48.258;12.518;2023-11-21T18:05:33;16.13;;;9.27;;
74788;SDS011;63313;48.258;12.518;2023-11-21T18:11:00;12.610000000000001;;;8.569999999999999;;
74788;SDS011;63313;48.258;12.518;2023-11-21T18:16:27;12.89;;;8.589999999999998;;
74788;SDS011;63313;48.258;12.518;2023-11-21T18:21:54;13.060000000000002;;;8.73;;
74788;SDS011;63313;48.258;12.518;2023-11-21T18:27:21;13.87;;;9.520000000000001;;
74788;SDS011;63313;48.258;12.518;2023-11-21T18:32:48;16.419999999999998;;;9.760000000000002;;
74788;SDS011;63313;48.258;12.518;2023-11-21T18:38:15;18.740000000000002;;;10.7;;
74788;SDS011;63313;48.258;12.518;2023-11-21T18:43:42;16.749999999999996;;;9.84;;
74788;SDS011;63313;48.258;12.518;2023-11-21T18:49:09;15.770000000000001;;;10.0;;
74788;SDS011;63313;48.258;12.518;2023-11-21T18:54:37;13.76;;;9.209999999999999;;
74788;SDS011;63313;48.258;12.518;2023-11-21T19:00:05;14.190000000000001;;;8.95;;
74788;SDS011;63313;48.258;12.518;2023-11-21T19:05:33;14.16;;;9.7;;
74788;SDS011;63313;48.258;12.518;2023-11-21T19:11:00;14.330000000000002;;;9.969999999999999;;
74788;SDS011;63313;48.258;12.518;2023-11-21T19:16:27;19.71;;;10.97;;
74788;SDS011;63313;48.258;12.518;2023-11-21T19:21:54;14.91;;;9.7;;
74788;SDS011;63313;48.258;12.518;2023-11-21T19:27:21;17.530000000000005;;;10.36;;
74788;SDS011;63313;48.258;12.518;2023-11-21T19:32:48;19.810000000000002;;;11.41;;
74788;SDS011;63313;48.258;12.518;2023-11-21T19:38:15;26.110000000000003;;;16.39;;
74788;SDS011;63313;48.258;12.518;2023-11-21T19:43:42;22.25;;;14.62;;
74788;SDS011;63313;48.258;12.518;2023-11-21T19:49:09;21.6;;;11.98;;
74788;SDS011;63313;48.258;12.518;2023-11-21T19:54:37;20.95;;;12.010000000000002;;
74788;SDS011;63313;48.258;12.518;2023-11-21T20:00:04;19.509999999999998;;;11.139999999999999;;
74788;SDS011;63313;48.258;12.518;2023-11-21T20:05:31;18.119999999999997;;;11.219999999999999;;
74788;SDS011;63313;48.258;12.518;2023-11-21T20:10:58;19.580000000000002;;;11.370000000000001;;
74788;SDS011;63313;48.258;12.518;2023-11-21T20:16:25;18.91;;;11.330000000000002;;
74788;SDS011;63313;48.258;12.518;2023-11-21T20:21:52;20.279999999999998;;;11.840000000000002;;
74788;SDS011;63313;48.258;12.518;2023-11-21T20:27:20;18.590000000000003;;;11.4;;
74788;SDS011;63313;48.258;12.518;2023-11-21T20:32:47;19.990000000000002;;;12.36;;
74788;SDS011;63313;48.258;12.518;2023-11-21T20:38:14;23.04;;;13.820000000000002;;
74788;SDS011;63313;48.258;12.518;2023-11-21T20:43:41;22.95;;;12.44;;
74788;SDS011;63313;48.258;12.518;2023-11-21T20:49:08;20.439999999999998;;;11.620000000000001;;
74788;SDS011;63313;48.258;12.518;2023-11-21T20:54:36;20.62;;;13.440000000000001;;
74788;SDS011;63313;48.258;12.518;2023-11-21T21:00:03;20.56;;;12.57;;
74788;SDS011;63313;48.258;12.518;2023-11-21T21:05:30;26.119999999999997;;;13.75;;
74788;SDS011;63313;48.258;12.518;2023-11-21T21:10:57;27.55;;;13.84;;
74788;SDS011;63313;48.258;12.518;2023-11-21T21:16:24;24.630000000000003;;;13.39;;
74788;SDS011;63313;48.258;12.518;2023-11-21T21:21:51;23.580000000000002;;;14.690000000000001;;
74788;SDS011;63313;48.258;12.518;2023-11-21T21:27:18;25.5;;;14.49;;
74788;SDS011;63313;48.258;12.518;2023-11-21T21:32:45;24.92;;;14.219999999999999;;
74788;SDS011;63313;48.258;12.518;2023-11-21T21:38:12;25.669999999999998;;;14.64;;
74788;SDS011;63313;48.258;12.518;2023-11-21T21:43:40;28.4;;;14.919999999999998;;
74788;SDS011;63313;48.258;12.518;2023-11-21T21:49:07;23.580000000000002;;;13.88;;
74788;SDS011;63313;48.258;12.518;2023-11-21T21:54:34;25.68;;;14.61;;
74788;SDS011;63313;48.258;12.518;2023-11-21T22:00:01;25.8;;;15.65;;
74788;SDS011;63313;48.258;12.518;2023-11-21T22:05:28;25.479999999999997;;;15.290000000000001;;
74788;SDS011;63313;48.258;12.518;2023-11-21T22:10:55;30.619999999999997;;;16.53;;
74788;SDS011;63313;48.258;12.518;2023-11-21T22:16:22;30.18;;;16.39;;
74788;SDS011;63313;48.258;12.518;2023-11-21T22:21:49;24.619999999999997;;;14.61;;
74788;SDS011;63313;48.258;12.518;2023-11-21T22:27:16;23.21;;;13.579999999999998;;
74788;SDS011;63313;48.258;12.518;2023-11-21T22:32:43;24.700000000000003;;;14.37;;
74788;SDS011;63313;48.258;12.518;2023-11-21T22:38:10;20.97;;;13.23;;
74788;SDS011;63313;48.258;12.518;2023-11-21T22:43:37;22.8;;;13.01;;
74788;SDS011;63313;48.258;12.518;2023-11-21T22:49:04;25.490000000000002;;;14.059999999999999;;
74788;SDS011;63313;48.258;12.518;2023-11-21T22:54:31;26.54;;;13.11;;
74788;SDS011;63313;48.258;12.518;2023-11-21T22:59:58;24.720000000000002;;;11.620000000000001;;
74788;SDS011;63313;48.258;12.518;2023-11-21T23:05:25;21.43;;;11.890000000000002;;
74788;SDS011;63313;48.258;12.518;2023-11-21T23:10:52;20.14;;;11.960000000000003;;
74788;SDS011;63313;48.258;12.518;2023-11-21T23:16:20;20.630000000000003;;;11.36;;
74788;SDS011;63313;48.258;12.518;2023-11-21T23:21:47;23.669999999999998;;;12.36;;
74788;SDS011;63313;48.258;12.518;2023-11-21T23:27:14;23.25;;;12.930000000000001;;
74788;SDS011;63313;48.258;12.518;2023-11-21T23:32:41;17.93;;;9.819999999999999;;
74788;SDS011;63313;48.258;12.518;2023-11-21T23:38:08;18.9;;;10.690000000000001;;
74788;SDS011;63313;48.258;12.518;2023-11-21T23:43:35;18.66;;;10.48;;
74788;SDS011;63313;48.258;12.518;2023-11-21T23:49:02;14.819999999999999;;;8.41;;
74788;SDS011;63313;48.258;12.518;2023-11-21T23:54:29;14.1;;;8.669999999999998;;
74788;SDS011;63313;48.258;12.518;2023-11-21T23:59:56;15.210000000000003;;;9.250000000000002;;
